sensor_id;sensor_type;location;lat;lon;timestamp;P1;durP1;ratioP1;P2;durP2;ratioP2
53309;SDS011;39197;53.200;5.792;2023-04-01T00:00:53;11.43;;;10.30;;
53309;SDS011;39197;53.200;5.792;2023-04-01T00:03:20;10.88;;;9.88;;
53309;SDS011;39197;53.200;5.792;2023-04-01T00:05:46;10.27;;;9.18;;
53309;SDS011;39197;53.200;5.792;2023-04-01T00:08:12;9.90;;;9.00;;
53309;SDS011;39197;53.200;5.792;2023-04-01T00:10:38;10.18;;;9.30;;
53309;SDS011;39197;53.200;5.792;2023-04-01T00:13:03;10.20;;;9.20;;
53309;SDS011;39197;53.200;5.792;2023-04-01T00:15:29;10.10;;;9.20;;
53309;SDS011;39197;53.200;5.792;2023-04-01T00:17:55;12.73;;;10.50;;
53309;SDS011;39197;53.200;5.792;2023-04-01T00:20:21;10.60;;;9.60;;
53309;SDS011;39197;53.200;5.792;2023-04-01T00:22:47;11.00;;;9.88;;
53309;SDS011;39197;53.200;5.792;2023-04-01T00:25:13;11.73;;;10.60;;
53309;SDS011;39197;53.200;5.792;2023-04-01T00:27:39;11.10;;;10.00;;
53309;SDS011;39197;53.200;5.792;2023-04-01T00:30:05;11.07;;;10.07;;
53309;SDS011;39197;53.200;5.792;2023-04-01T00:32:32;10.68;;;9.77;;
53309;SDS011;39197;53.200;5.792;2023-04-01T00:34:58;11.25;;;10.15;;
53309;SDS011;39197;53.200;5.792;2023-04-01T00:37:24;10.60;;;9.60;;
53309;SDS011;39197;53.200;5.792;2023-04-01T00:39:51;11.20;;;10.07;;
53309;SDS011;39197;53.200;5.792;2023-04-01T00:42:16;12.00;;;10.90;;
53309;SDS011;39197;53.200;5.792;2023-04-01T00:44:44;11.68;;;10.57;;
53309;SDS011;39197;53.200;5.792;2023-04-01T00:47:12;11.38;;;10.25;;
53309;SDS011;39197;53.200;5.792;2023-04-01T00:49:40;11.95;;;10.85;;
53309;SDS011;39197;53.200;5.792;2023-04-01T00:52:10;11.35;;;10.25;;
53309;SDS011;39197;53.200;5.792;2023-04-01T00:54:38;11.77;;;10.68;;
53309;SDS011;39197;53.200;5.792;2023-04-01T00:57:18;10.88;;;9.98;;
53309;SDS011;39197;53.200;5.792;2023-04-01T00:59:59;16.95;;;15.35;;
53309;SDS011;39197;53.200;5.792;2023-04-01T01:02:25;11.25;;;10.27;;
53309;SDS011;39197;53.200;5.792;2023-04-01T01:04:51;11.48;;;10.38;;
53309;SDS011;39197;53.200;5.792;2023-04-01T01:07:22;13.32;;;11.20;;
53309;SDS011;39197;53.200;5.792;2023-04-01T01:10:01;12.00;;;10.90;;
53309;SDS011;39197;53.200;5.792;2023-04-01T01:12:44;13.15;;;11.85;;
53309;SDS011;39197;53.200;5.792;2023-04-01T01:15:13;11.82;;;10.65;;
53309;SDS011;39197;53.200;5.792;2023-04-01T01:17:51;12.93;;;11.65;;
53309;SDS011;39197;53.200;5.792;2023-04-01T01:23:23;12.95;;;11.65;;
53309;SDS011;39197;53.200;5.792;2023-04-01T01:29:10;15.35;;;12.30;;
53309;SDS011;39197;53.200;5.792;2023-04-01T01:37:14;21.52;;;19.33;;
53309;SDS011;39197;53.200;5.792;2023-04-01T01:39:41;13.57;;;12.20;;
53309;SDS011;39197;53.200;5.792;2023-04-01T01:42:11;14.57;;;13.10;;
53309;SDS011;39197;53.200;5.792;2023-04-01T01:44:40;15.35;;;13.75;;
53309;SDS011;39197;53.200;5.792;2023-04-01T01:47:09;12.95;;;11.68;;
53309;SDS011;39197;53.200;5.792;2023-04-01T01:49:35;12.95;;;11.75;;
53309;SDS011;39197;53.200;5.792;2023-04-01T01:52:01;13.38;;;12.02;;
53309;SDS011;39197;53.200;5.792;2023-04-01T01:54:28;21.90;;;19.45;;
53309;SDS011;39197;53.200;5.792;2023-04-01T01:57:05;19.77;;;16.55;;
53309;SDS011;39197;53.200;5.792;2023-04-01T01:59:33;24.63;;;22.10;;
53309;SDS011;39197;53.200;5.792;2023-04-01T02:02:02;15.10;;;13.50;;
53309;SDS011;39197;53.200;5.792;2023-04-01T02:04:34;15.93;;;14.40;;
53309;SDS011;39197;53.200;5.792;2023-04-01T02:07:02;14.38;;;12.90;;
53309;SDS011;39197;53.200;5.792;2023-04-01T02:09:32;13.50;;;11.98;;
53309;SDS011;39197;53.200;5.792;2023-04-01T02:12:00;15.35;;;13.68;;
53309;SDS011;39197;53.200;5.792;2023-04-01T02:17:24;12.50;;;11.40;;
53309;SDS011;39197;53.200;5.792;2023-04-01T02:19:54;16.27;;;13.82;;
53309;SDS011;39197;53.200;5.792;2023-04-01T02:22:25;13.30;;;12.10;;
53309;SDS011;39197;53.200;5.792;2023-04-01T02:24:54;13.75;;;12.23;;
53309;SDS011;39197;53.200;5.792;2023-04-01T02:27:24;13.50;;;12.20;;
53309;SDS011;39197;53.200;5.792;2023-04-01T02:29:50;14.73;;;13.35;;
53309;SDS011;39197;53.200;5.792;2023-04-01T02:32:17;14.27;;;12.88;;
53309;SDS011;39197;53.200;5.792;2023-04-01T02:34:45;13.90;;;12.57;;
53309;SDS011;39197;53.200;5.792;2023-04-01T02:37:11;18.13;;;16.25;;
53309;SDS011;39197;53.200;5.792;2023-04-01T02:39:38;16.40;;;14.13;;
53309;SDS011;39197;53.200;5.792;2023-04-01T02:42:03;14.85;;;13.35;;
53309;SDS011;39197;53.200;5.792;2023-04-01T02:44:30;14.85;;;13.45;;
53309;SDS011;39197;53.200;5.792;2023-04-01T02:46:55;14.70;;;13.20;;
53309;SDS011;39197;53.200;5.792;2023-04-01T02:49:21;16.67;;;13.95;;
53309;SDS011;39197;53.200;5.792;2023-04-01T02:51:46;14.73;;;13.32;;
53309;SDS011;39197;53.200;5.792;2023-04-01T02:54:12;15.55;;;13.95;;
53309;SDS011;39197;53.200;5.792;2023-04-01T02:56:38;15.52;;;13.75;;
53309;SDS011;39197;53.200;5.792;2023-04-01T02:59:03;15.35;;;13.77;;
53309;SDS011;39197;53.200;5.792;2023-04-01T03:01:29;14.05;;;12.40;;
53309;SDS011;39197;53.200;5.792;2023-04-01T03:03:55;15.68;;;13.95;;
53309;SDS011;39197;53.200;5.792;2023-04-01T03:06:20;15.85;;;14.13;;
53309;SDS011;39197;53.200;5.792;2023-04-01T03:08:46;18.33;;;14.15;;
53309;SDS011;39197;53.200;5.792;2023-04-01T03:11:12;16.02;;;13.57;;
53309;SDS011;39197;53.200;5.792;2023-04-01T03:13:38;15.27;;;13.77;;
53309;SDS011;39197;53.200;5.792;2023-04-01T03:16:04;15.30;;;13.70;;
53309;SDS011;39197;53.200;5.792;2023-04-01T03:18:29;16.58;;;14.93;;
53309;SDS011;39197;53.200;5.792;2023-04-01T03:20:55;14.73;;;13.25;;
53309;SDS011;39197;53.200;5.792;2023-04-01T03:23:21;15.15;;;13.18;;
53309;SDS011;39197;53.200;5.792;2023-04-01T03:25:47;15.65;;;14.05;;
53309;SDS011;39197;53.200;5.792;2023-04-01T03:28:13;16.38;;;14.38;;
53309;SDS011;39197;53.200;5.792;2023-04-01T03:30:38;18.15;;;15.00;;
53309;SDS011;39197;53.200;5.792;2023-04-01T03:33:05;17.25;;;14.85;;
53309;SDS011;39197;53.200;5.792;2023-04-01T03:35:31;15.85;;;14.10;;
53309;SDS011;39197;53.200;5.792;2023-04-01T03:37:57;15.57;;;13.88;;
53309;SDS011;39197;53.200;5.792;2023-04-01T03:40:23;16.70;;;15.00;;
53309;SDS011;39197;53.200;5.792;2023-04-01T03:42:51;16.02;;;14.43;;
53309;SDS011;39197;53.200;5.792;2023-04-01T03:45:17;16.02;;;14.30;;
53309;SDS011;39197;53.200;5.792;2023-04-01T03:47:42;14.93;;;13.52;;
53309;SDS011;39197;53.200;5.792;2023-04-01T03:50:08;13.75;;;12.35;;
53309;SDS011;39197;53.200;5.792;2023-04-01T03:52:35;14.40;;;12.93;;
53309;SDS011;39197;53.200;5.792;2023-04-01T03:55:00;14.50;;;13.07;;
53309;SDS011;39197;53.200;5.792;2023-04-01T03:57:26;14.52;;;13.02;;
53309;SDS011;39197;53.200;5.792;2023-04-01T03:59:52;14.55;;;12.82;;
53309;SDS011;39197;53.200;5.792;2023-04-01T04:02:18;15.07;;;13.65;;
53309;SDS011;39197;53.200;5.792;2023-04-01T04:04:44;14.32;;;12.70;;
53309;SDS011;39197;53.200;5.792;2023-04-01T04:07:11;14.25;;;12.85;;
53309;SDS011;39197;53.200;5.792;2023-04-01T04:09:37;13.80;;;12.40;;
53309;SDS011;39197;53.200;5.792;2023-04-01T04:12:02;15.20;;;13.60;;
53309;SDS011;39197;53.200;5.792;2023-04-01T04:14:30;13.57;;;12.20;;
53309;SDS011;39197;53.200;5.792;2023-04-01T04:16:56;16.20;;;12.77;;
53309;SDS011;39197;53.200;5.792;2023-04-01T04:19:21;15.68;;;13.45;;
53309;SDS011;39197;53.200;5.792;2023-04-01T04:21:47;14.60;;;13.10;;
53309;SDS011;39197;53.200;5.792;2023-04-01T04:24:12;14.40;;;12.57;;
53309;SDS011;39197;53.200;5.792;2023-04-01T04:26:38;16.02;;;14.32;;
53309;SDS011;39197;53.200;5.792;2023-04-01T04:29:03;16.83;;;14.13;;
53309;SDS011;39197;53.200;5.792;2023-04-01T04:31:29;19.48;;;15.10;;
53309;SDS011;39197;53.200;5.792;2023-04-01T04:33:55;18.15;;;16.17;;
53309;SDS011;39197;53.200;5.792;2023-04-01T04:36:21;17.13;;;14.50;;
53309;SDS011;39197;53.200;5.792;2023-04-01T04:38:47;19.75;;;17.10;;
53309;SDS011;39197;53.200;5.792;2023-04-01T04:41:16;18.52;;;16.23;;
53309;SDS011;39197;53.200;5.792;2023-04-01T04:43:48;19.00;;;16.67;;
53309;SDS011;39197;53.200;5.792;2023-04-01T04:46:19;18.80;;;15.73;;
53309;SDS011;39197;53.200;5.792;2023-04-01T04:48:45;20.55;;;17.80;;
53309;SDS011;39197;53.200;5.792;2023-04-01T04:51:17;22.75;;;18.52;;
53309;SDS011;39197;53.200;5.792;2023-04-01T04:53:44;21.98;;;18.15;;
53309;SDS011;39197;53.200;5.792;2023-04-01T04:56:10;19.13;;;16.83;;
53309;SDS011;39197;53.200;5.792;2023-04-01T04:58:37;19.30;;;17.15;;
53309;SDS011;39197;53.200;5.792;2023-04-01T05:01:07;20.20;;;17.45;;
53309;SDS011;39197;53.200;5.792;2023-04-01T05:03:40;22.77;;;19.15;;
53309;SDS011;39197;53.200;5.792;2023-04-01T05:06:07;18.85;;;16.85;;
53309;SDS011;39197;53.200;5.792;2023-04-01T05:08:34;20.58;;;17.70;;
53309;SDS011;39197;53.200;5.792;2023-04-01T05:11:00;22.65;;;19.77;;
53309;SDS011;39197;53.200;5.792;2023-04-01T05:13:27;24.50;;;19.05;;
53309;SDS011;39197;53.200;5.792;2023-04-01T05:15:53;24.55;;;19.80;;
53309;SDS011;39197;53.200;5.792;2023-04-01T05:18:19;22.30;;;19.35;;
53309;SDS011;39197;53.200;5.792;2023-04-01T05:20:52;28.55;;;20.77;;
53309;SDS011;39197;53.200;5.792;2023-04-01T05:23:19;24.02;;;21.25;;
53309;SDS011;39197;53.200;5.792;2023-04-01T05:25:46;25.02;;;19.25;;
53309;SDS011;39197;53.200;5.792;2023-04-01T05:28:17;25.50;;;22.48;;
53309;SDS011;39197;53.200;5.792;2023-04-01T05:30:44;22.15;;;19.30;;
53309;SDS011;39197;53.200;5.792;2023-04-01T05:33:10;24.23;;;20.50;;
53309;SDS011;39197;53.200;5.792;2023-04-01T05:35:37;23.35;;;20.67;;
53309;SDS011;39197;53.200;5.792;2023-04-01T05:38:04;24.80;;;22.08;;
53309;SDS011;39197;53.200;5.792;2023-04-01T05:40:30;27.42;;;22.35;;
53309;SDS011;39197;53.200;5.792;2023-04-01T05:42:56;24.85;;;20.38;;
53309;SDS011;39197;53.200;5.792;2023-04-01T05:45:22;24.05;;;20.65;;
53309;SDS011;39197;53.200;5.792;2023-04-01T05:47:47;27.45;;;21.58;;
53309;SDS011;39197;53.200;5.792;2023-04-01T05:50:13;24.35;;;21.25;;
53309;SDS011;39197;53.200;5.792;2023-04-01T05:52:38;26.30;;;21.45;;
53309;SDS011;39197;53.200;5.792;2023-04-01T05:55:05;28.90;;;21.45;;
53309;SDS011;39197;53.200;5.792;2023-04-01T05:57:31;27.65;;;21.90;;
53309;SDS011;39197;53.200;5.792;2023-04-01T05:59:56;26.30;;;21.85;;
53309;SDS011;39197;53.200;5.792;2023-04-01T06:02:22;25.70;;;20.52;;
53309;SDS011;39197;53.200;5.792;2023-04-01T06:04:48;29.95;;;22.30;;
53309;SDS011;39197;53.200;5.792;2023-04-01T06:07:17;25.30;;;22.13;;
53309;SDS011;39197;53.200;5.792;2023-04-01T06:09:43;28.52;;;23.10;;
53309;SDS011;39197;53.200;5.792;2023-04-01T06:26:05;26.75;;;21.58;;
53309;SDS011;39197;53.200;5.792;2023-04-01T06:28:41;28.38;;;22.15;;
53309;SDS011;39197;53.200;5.792;2023-04-01T06:34:35;29.88;;;22.65;;
53309;SDS011;39197;53.200;5.792;2023-04-01T06:37:35;25.27;;;18.98;;
53309;SDS011;39197;53.200;5.792;2023-04-01T06:44:04;27.15;;;17.13;;
53309;SDS011;39197;53.200;5.792;2023-04-01T06:46:19;18.60;;;15.88;;
53309;SDS011;39197;53.200;5.792;2023-04-01T06:49:54;16.92;;;15.13;;
53309;SDS011;39197;53.200;5.792;2023-04-01T06:54:50;20.70;;;16.25;;
53309;SDS011;39197;53.200;5.792;2023-04-01T06:57:25;19.88;;;16.52;;
53309;SDS011;39197;53.200;5.792;2023-04-01T07:00:10;21.30;;;16.83;;
53309;SDS011;39197;53.200;5.792;2023-04-01T07:02:48;22.77;;;18.20;;
53309;SDS011;39197;53.200;5.792;2023-04-01T07:05:23;23.35;;;19.55;;
53309;SDS011;39197;53.200;5.792;2023-04-01T07:07:52;25.35;;;19.95;;
53309;SDS011;39197;53.200;5.792;2023-04-01T07:10:30;22.70;;;19.15;;
53309;SDS011;39197;53.200;5.792;2023-04-01T07:13:29;24.00;;;20.40;;
53309;SDS011;39197;53.200;5.792;2023-04-01T07:18:32;23.03;;;20.50;;
53309;SDS011;39197;53.200;5.792;2023-04-01T07:21:04;23.63;;;21.15;;
53309;SDS011;39197;53.200;5.792;2023-04-01T07:23:36;26.60;;;21.45;;
53309;SDS011;39197;53.200;5.792;2023-04-01T07:26:17;23.90;;;21.33;;
53309;SDS011;39197;53.200;5.792;2023-04-01T07:28:48;22.70;;;20.30;;
53309;SDS011;39197;53.200;5.792;2023-04-01T07:31:25;23.08;;;20.58;;
53309;SDS011;39197;53.200;5.792;2023-04-01T07:34:55;22.80;;;20.40;;
53309;SDS011;39197;53.200;5.792;2023-04-01T07:48:38;44.40;;;25.63;;
53309;SDS011;39197;53.200;5.792;2023-04-01T07:51:19;38.63;;;24.20;;
53309;SDS011;39197;53.200;5.792;2023-04-01T07:56:45;33.88;;;23.00;;
53309;SDS011;39197;53.200;5.792;2023-04-01T07:59:42;35.03;;;23.27;;
53309;SDS011;39197;53.200;5.792;2023-04-01T08:21:23;23.50;;;17.98;;
53309;SDS011;39197;53.200;5.792;2023-04-01T08:23:52;20.05;;;15.45;;
53309;SDS011;39197;53.200;5.792;2023-04-01T08:34:24;15.02;;;8.57;;
53309;SDS011;39197;53.200;5.792;2023-04-01T08:36:54;13.55;;;7.57;;
53309;SDS011;39197;53.200;5.792;2023-04-01T08:39:30;11.65;;;7.88;;
53309;SDS011;39197;53.200;5.792;2023-04-01T08:50:23;11.00;;;5.22;;
53309;SDS011;39197;53.200;5.792;2023-04-01T09:24:24;10.73;;;5.32;;
53309;SDS011;39197;53.200;5.792;2023-04-01T09:27:10;10.20;;;4.65;;
53309;SDS011;39197;53.200;5.792;2023-04-01T09:35:30;9.82;;;2.92;;
53309;SDS011;39197;53.200;5.792;2023-04-01T09:38:29;4.97;;;2.67;;
53309;SDS011;39197;53.200;5.792;2023-04-01T09:49:26;6.32;;;1.70;;
53309;SDS011;39197;53.200;5.792;2023-04-01T09:52:10;4.22;;;1.75;;
53309;SDS011;39197;53.200;5.792;2023-04-01T09:55:03;5.78;;;2.33;;
53309;SDS011;39197;53.200;5.792;2023-04-01T10:00:42;7.50;;;2.50;;
53309;SDS011;39197;53.200;5.792;2023-04-01T10:03:37;9.75;;;3.70;;
53309;SDS011;39197;53.200;5.792;2023-04-01T10:24:00;6.85;;;2.80;;
53309;SDS011;39197;53.200;5.792;2023-04-01T10:43:57;5.03;;;2.83;;
53309;SDS011;39197;53.200;5.792;2023-04-01T10:46:48;11.82;;;2.90;;
53309;SDS011;39197;53.200;5.792;2023-04-01T10:55:42;6.72;;;2.45;;
53309;SDS011;39197;53.200;5.792;2023-04-01T11:10:26;5.22;;;1.80;;
53309;SDS011;39197;53.200;5.792;2023-04-01T11:26:39;3.92;;;1.95;;
53309;SDS011;39197;53.200;5.792;2023-04-01T11:29:30;5.28;;;1.95;;
53309;SDS011;39197;53.200;5.792;2023-04-01T11:32:20;6.30;;;1.33;;
53309;SDS011;39197;53.200;5.792;2023-04-01T11:35:21;5.35;;;1.70;;
53309;SDS011;39197;53.200;5.792;2023-04-01T11:43:10;7.13;;;1.85;;
53309;SDS011;39197;53.200;5.792;2023-04-01T11:51:11;4.75;;;1.73;;
53309;SDS011;39197;53.200;5.792;2023-04-01T11:53:47;5.50;;;2.30;;
53309;SDS011;39197;53.200;5.792;2023-04-01T11:56:23;3.42;;;2.08;;
53309;SDS011;39197;53.200;5.792;2023-04-01T12:02:25;3.45;;;1.45;;
53309;SDS011;39197;53.200;5.792;2023-04-01T12:05:17;8.43;;;2.38;;
53309;SDS011;39197;53.200;5.792;2023-04-01T12:18:57;2.65;;;1.08;;
53309;SDS011;39197;53.200;5.792;2023-04-01T12:24:25;5.50;;;1.73;;
53309;SDS011;39197;53.200;5.792;2023-04-01T12:32:45;6.20;;;1.50;;
53309;SDS011;39197;53.200;5.792;2023-04-01T12:35:20;7.50;;;2.13;;
53309;SDS011;39197;53.200;5.792;2023-04-01T13:16:19;5.72;;;1.48;;
53309;SDS011;39197;53.200;5.792;2023-04-01T13:19:10;9.30;;;1.42;;
53309;SDS011;39197;53.200;5.792;2023-04-01T13:21:58;6.38;;;1.10;;
53309;SDS011;39197;53.200;5.792;2023-04-01T13:27:45;2.42;;;1.90;;
53309;SDS011;39197;53.200;5.792;2023-04-01T13:35:36;3.78;;;1.58;;
53309;SDS011;39197;53.200;5.792;2023-04-01T13:41:14;4.20;;;1.17;;
53309;SDS011;39197;53.200;5.792;2023-04-01T13:50:51;3.55;;;1.23;;
53309;SDS011;39197;53.200;5.792;2023-04-01T13:53:16;5.85;;;2.05;;
53309;SDS011;39197;53.200;5.792;2023-04-01T14:09:43;2.50;;;0.88;;
53309;SDS011;39197;53.200;5.792;2023-04-01T14:15:31;3.95;;;2.15;;
53309;SDS011;39197;53.200;5.792;2023-04-01T14:27:04;3.90;;;2.15;;
53309;SDS011;39197;53.200;5.792;2023-04-01T14:38:06;3.15;;;1.83;;
53309;SDS011;39197;53.200;5.792;2023-04-01T14:49:04;4.57;;;2.00;;
53309;SDS011;39197;53.200;5.792;2023-04-01T14:51:40;5.18;;;1.90;;
53309;SDS011;39197;53.200;5.792;2023-04-01T14:54:21;5.65;;;1.65;;
53309;SDS011;39197;53.200;5.792;2023-04-01T14:57:05;7.22;;;1.60;;
53309;SDS011;39197;53.200;5.792;2023-04-01T15:11:14;10.85;;;5.40;;
53309;SDS011;39197;53.200;5.792;2023-04-01T15:16:49;4.72;;;2.35;;
53309;SDS011;39197;53.200;5.792;2023-04-01T15:25:19;6.07;;;2.35;;
53309;SDS011;39197;53.200;5.792;2023-04-01T15:30:34;8.00;;;2.45;;
53309;SDS011;39197;53.200;5.792;2023-04-01T15:38:34;8.57;;;3.83;;
53309;SDS011;39197;53.200;5.792;2023-04-01T15:41:23;11.13;;;4.03;;
53309;SDS011;39197;53.200;5.792;2023-04-01T15:44:00;8.43;;;2.95;;
53309;SDS011;39197;53.200;5.792;2023-04-01T16:00:11;9.23;;;3.90;;
53309;SDS011;39197;53.200;5.792;2023-04-01T16:08:08;8.18;;;3.92;;
53309;SDS011;39197;53.200;5.792;2023-04-01T16:13:42;8.73;;;4.38;;
53309;SDS011;39197;53.200;5.792;2023-04-01T16:19:03;9.88;;;5.43;;
53309;SDS011;39197;53.200;5.792;2023-04-01T16:30:03;10.10;;;4.28;;
53309;SDS011;39197;53.200;5.792;2023-04-01T16:33:34;10.85;;;4.30;;
53309;SDS011;39197;53.200;5.792;2023-04-01T16:36:01;10.95;;;4.95;;
53309;SDS011;39197;53.200;5.792;2023-04-01T16:38:37;10.20;;;4.80;;
53309;SDS011;39197;53.200;5.792;2023-04-01T16:41:14;12.23;;;4.65;;
53309;SDS011;39197;53.200;5.792;2023-04-01T16:43:56;10.10;;;5.03;;
53309;SDS011;39197;53.200;5.792;2023-04-01T16:46:38;10.43;;;5.07;;
53309;SDS011;39197;53.200;5.792;2023-04-01T16:51:45;18.23;;;5.53;;
53309;SDS011;39197;53.200;5.792;2023-04-01T16:54:53;11.55;;;5.07;;
53309;SDS011;39197;53.200;5.792;2023-04-01T16:57:35;9.13;;;4.45;;
53309;SDS011;39197;53.200;5.792;2023-04-01T17:03:22;12.18;;;6.00;;
53309;SDS011;39197;53.200;5.792;2023-04-01T17:08:46;9.52;;;5.47;;
53309;SDS011;39197;53.200;5.792;2023-04-01T17:11:27;15.60;;;5.47;;
53309;SDS011;39197;53.200;5.792;2023-04-01T17:22:25;11.15;;;5.63;;
53309;SDS011;39197;53.200;5.792;2023-04-01T17:39:09;15.43;;;6.72;;
53309;SDS011;39197;53.200;5.792;2023-04-01T17:47:21;11.40;;;5.20;;
53309;SDS011;39197;53.200;5.792;2023-04-01T18:00:58;13.77;;;6.07;;
53309;SDS011;39197;53.200;5.792;2023-04-01T18:06:30;15.55;;;6.32;;
53309;SDS011;39197;53.200;5.792;2023-04-01T18:12:00;10.48;;;5.40;;
53309;SDS011;39197;53.200;5.792;2023-04-01T18:25:44;8.25;;;4.55;;
53309;SDS011;39197;53.200;5.792;2023-04-01T18:36:19;12.80;;;5.20;;
53309;SDS011;39197;53.200;5.792;2023-04-01T18:39:14;12.07;;;6.35;;
53309;SDS011;39197;53.200;5.792;2023-04-01T18:42:03;11.68;;;6.95;;
53309;SDS011;39197;53.200;5.792;2023-04-01T18:44:52;9.23;;;5.00;;
53309;SDS011;39197;53.200;5.792;2023-04-01T18:52:56;9.88;;;5.20;;
53309;SDS011;39197;53.200;5.792;2023-04-01T18:55:42;16.55;;;6.00;;
53309;SDS011;39197;53.200;5.792;2023-04-01T18:58:20;12.95;;;7.32;;
53309;SDS011;39197;53.200;5.792;2023-04-01T19:00:51;8.43;;;5.40;;
53309;SDS011;39197;53.200;5.792;2023-04-01T19:09:16;13.57;;;6.03;;
53309;SDS011;39197;53.200;5.792;2023-04-01T19:25:57;7.90;;;4.85;;
53309;SDS011;39197;53.200;5.792;2023-04-01T19:28:45;15.90;;;7.72;;
53309;SDS011;39197;53.200;5.792;2023-04-01T19:42:24;9.82;;;4.45;;
53309;SDS011;39197;53.200;5.792;2023-04-01T19:45:07;13.10;;;6.50;;
53309;SDS011;39197;53.200;5.792;2023-04-01T19:50:27;15.63;;;4.60;;
53309;SDS011;39197;53.200;5.792;2023-04-01T19:53:06;9.57;;;5.07;;
53309;SDS011;39197;53.200;5.792;2023-04-01T19:55:48;10.40;;;4.20;;
53309;SDS011;39197;53.200;5.792;2023-04-01T19:58:31;12.90;;;5.93;;
53309;SDS011;39197;53.200;5.792;2023-04-01T20:01:18;12.80;;;5.97;;
53309;SDS011;39197;53.200;5.792;2023-04-01T20:04:00;9.90;;;5.07;;
53309;SDS011;39197;53.200;5.792;2023-04-01T20:14:59;12.73;;;4.50;;
53309;SDS011;39197;53.200;5.792;2023-04-01T20:17:45;11.88;;;4.85;;
53309;SDS011;39197;53.200;5.792;2023-04-01T20:50:58;16.80;;;4.43;;
53309;SDS011;39197;53.200;5.792;2023-04-01T20:53:34;9.85;;;4.70;;
53309;SDS011;39197;53.200;5.792;2023-04-01T20:56:30;12.30;;;5.78;;
53309;SDS011;39197;53.200;5.792;2023-04-01T21:05:04;12.98;;;4.20;;
53309;SDS011;39197;53.200;5.792;2023-04-01T21:16:25;8.90;;;3.17;;
53309;SDS011;39197;53.200;5.792;2023-04-01T21:24:23;7.68;;;3.75;;
53309;SDS011;39197;53.200;5.792;2023-04-01T21:37:22;12.23;;;5.03;;
53309;SDS011;39197;53.200;5.792;2023-04-01T21:54:50;12.77;;;4.75;;
53309;SDS011;39197;53.200;5.792;2023-04-01T22:00:36;14.50;;;5.97;;
53309;SDS011;39197;53.200;5.792;2023-04-01T22:09:10;12.02;;;5.88;;
53309;SDS011;39197;53.200;5.792;2023-04-01T22:14:42;9.32;;;2.80;;
53309;SDS011;39197;53.200;5.792;2023-04-01T22:17:19;12.48;;;4.07;;
53309;SDS011;39197;53.200;5.792;2023-04-01T22:20:11;11.70;;;5.68;;
53309;SDS011;39197;53.200;5.792;2023-04-01T22:28:16;7.80;;;3.25;;
53309;SDS011;39197;53.200;5.792;2023-04-01T22:30:52;8.25;;;3.97;;
53309;SDS011;39197;53.200;5.792;2023-04-01T22:33:34;14.52;;;5.90;;
53309;SDS011;39197;53.200;5.792;2023-04-01T22:43:48;13.20;;;3.38;;
53309;SDS011;39197;53.200;5.792;2023-04-01T22:48:41;6.35;;;2.97;;
53309;SDS011;39197;53.200;5.792;2023-04-01T22:51:24;8.63;;;3.42;;
53309;SDS011;39197;53.200;5.792;2023-04-01T22:56:51;8.18;;;2.97;;
53309;SDS011;39197;53.200;5.792;2023-04-01T22:59:42;8.75;;;3.88;;
53309;SDS011;39197;53.200;5.792;2023-04-01T23:02:21;7.32;;;3.65;;
53309;SDS011;39197;53.200;5.792;2023-04-01T23:04:54;7.82;;;3.60;;
53309;SDS011;39197;53.200;5.792;2023-04-01T23:10:15;8.10;;;3.00;;
53309;SDS011;39197;53.200;5.792;2023-04-01T23:13:01;7.22;;;2.67;;
53309;SDS011;39197;53.200;5.792;2023-04-01T23:15:28;6.13;;;2.65;;
53309;SDS011;39197;53.200;5.792;2023-04-01T23:26:25;8.07;;;1.95;;
53309;SDS011;39197;53.200;5.792;2023-04-01T23:28:58;6.07;;;2.00;;
53309;SDS011;39197;53.200;5.792;2023-04-01T23:31:34;8.52;;;1.63;;
53309;SDS011;39197;53.200;5.792;2023-04-01T23:36:42;7.45;;;3.05;;
53309;SDS011;39197;53.200;5.792;2023-04-01T23:39:53;8.35;;;2.75;;
53309;SDS011;39197;53.200;5.792;2023-04-01T23:42:00;8.38;;;2.42;;
53309;SDS011;39197;53.200;5.792;2023-04-01T23:44:44;7.65;;;2.42;;
53309;SDS011;39197;53.200;5.792;2023-04-01T23:47:16;7.97;;;2.67;;
53309;SDS011;39197;53.200;5.792;2023-04-01T23:49:46;9.55;;;2.95;;
53309;SDS011;39197;53.200;5.792;2023-04-01T23:52:25;8.82;;;3.22;;
53309;SDS011;39197;53.200;5.792;2023-04-01T23:55:12;6.28;;;3.00;;
